createdAt,value
2019-02-27T00:00:44.578Z,6.19
2019-02-27T00:01:42.774Z,6.19
2019-02-27T00:02:43.579Z,6.19
2019-02-27T00:03:42.612Z,6.19
2019-02-27T00:04:43.011Z,6.16
2019-02-27T00:05:44.039Z,6.19
2019-02-27T00:06:48.581Z,6.19
2019-02-27T00:07:42.926Z,6.15
2019-02-27T00:08:42.628Z,6.15
2019-02-27T00:09:42.756Z,6.18
2019-02-27T00:10:44.457Z,6.15
2019-02-27T00:11:46.978Z,6.15
2019-02-27T00:12:43.181Z,6.15
2019-02-27T00:13:42.639Z,6.18
2019-02-27T00:14:43.592Z,6.16
2019-02-27T00:15:42.976Z,6.18
2019-02-27T00:16:45.401Z,6.19
2019-02-27T00:17:43.094Z,6.19
2019-02-27T00:18:42.620Z,6.22
2019-02-27T00:19:44.470Z,6.28
2019-02-27T00:20:43.008Z,6.25
2019-02-27T00:21:44.431Z,6.26
2019-02-27T00:22:42.613Z,6.29
2019-02-27T00:23:42.648Z,6.33
2019-02-27T00:24:42.730Z,6.36
2019-02-27T00:25:43.055Z,6.35
2019-02-27T00:26:43.222Z,6.39
2019-02-27T00:27:49.046Z,6.36
2019-02-27T00:28:42.782Z,6.39
2019-02-27T00:29:43.174Z,6.36
2019-02-27T00:30:42.603Z,6.32
2019-02-27T00:31:46.307Z,6.32
2019-02-27T00:32:43.000Z,6.33
2019-02-27T00:33:42.803Z,6.35
2019-02-27T00:34:44.434Z,6.33
2019-02-27T00:35:42.616Z,6.35
2019-02-27T00:36:45.792Z,6.33
2019-02-27T00:37:42.820Z,6.3
2019-02-27T00:38:42.753Z,6.32
2019-02-27T00:39:42.828Z,6.29
2019-02-27T00:40:42.592Z,6.26
2019-02-27T00:41:46.757Z,6.25
2019-02-27T00:42:42.634Z,6.22
2019-02-27T00:43:42.586Z,6.22
2019-02-27T00:44:42.568Z,6.19
2019-02-27T00:45:43.436Z,6.16
2019-02-27T00:46:47.115Z,6.08
2019-02-27T00:47:42.934Z,6.02
2019-02-27T00:48:44.112Z,6.04
2019-02-27T00:49:44.412Z,5.91
2019-02-27T00:50:42.671Z,5.88
2019-02-27T00:51:45.559Z,5.87
2019-02-27T00:52:42.588Z,5.81
2019-02-27T00:53:42.613Z,5.78
2019-02-27T00:54:42.926Z,5.74
2019-02-27T00:55:42.521Z,5.6
2019-02-27T00:56:45.783Z,5.56
2019-02-27T00:57:42.647Z,5.62
2019-02-27T00:58:43.063Z,5.53
2019-02-27T00:59:42.966Z,5.38
2019-02-27T01:00:43.052Z,5.28
2019-02-27T01:01:48.130Z,5.25
2019-02-27T01:02:42.790Z,5.26
2019-02-27T01:03:43.094Z,5.25
2019-02-27T01:04:42.742Z,5.22
2019-02-27T01:05:43.240Z,5.22
2019-02-27T01:06:48.195Z,5.23
2019-02-27T01:07:42.613Z,5.26
2019-02-27T01:08:42.838Z,5.26
2019-02-27T01:09:42.636Z,5.28
2019-02-27T01:10:46.010Z,5.25
2019-02-27T01:11:42.365Z,5.19
2019-02-27T01:12:42.946Z,5.21
2019-02-27T01:13:42.523Z,5.22
2019-02-27T01:14:43.392Z,5.25
2019-02-27T01:15:44.905Z,5.23
2019-02-27T01:16:42.878Z,5.29
2019-02-27T01:17:42.556Z,5.28
2019-02-27T01:18:42.994Z,5.25
2019-02-27T01:19:43.225Z,5.23
2019-02-27T01:20:46.722Z,5.26
2019-02-27T01:21:42.691Z,5.25
2019-02-27T01:22:42.567Z,5.25
2019-02-27T01:23:44.856Z,5.23
2019-02-27T01:24:42.663Z,5.18
2019-02-27T01:25:42.748Z,5.12
2019-02-27T01:26:42.549Z,5.1
2019-02-27T01:27:42.478Z,5.08
2019-02-27T01:28:45.749Z,5.02
2019-02-27T01:29:42.852Z,4.97
2019-02-27T01:30:43.030Z,4.95
2019-02-27T01:31:42.666Z,4.98
2019-02-27T01:32:44.340Z,4.98
2019-02-27T01:33:43.394Z,4.95
2019-02-27T01:34:45.157Z,4.91
2019-02-27T01:35:42.608Z,4.95
2019-02-27T01:36:42.891Z,4.93
2019-02-27T01:37:42.917Z,4.9
2019-02-27T01:38:42.655Z,4.9
2019-02-27T01:39:44.843Z,4.87
2019-02-27T01:40:44.335Z,4.86
2019-02-27T01:41:42.637Z,4.88
2019-02-27T01:42:44.332Z,4.91
2019-02-27T01:43:42.473Z,4.9
2019-02-27T01:44:47.306Z,4.97
2019-02-27T01:45:42.532Z,4.94
2019-02-27T01:46:42.453Z,4.94
2019-02-27T01:47:42.567Z,4.94
2019-02-27T01:48:43.937Z,4.94
2019-02-27T01:49:44.320Z,4.91
2019-02-27T01:50:42.661Z,4.7
2019-02-27T01:51:42.996Z,4.6
2019-02-27T01:52:42.700Z,4.51
2019-02-27T01:53:42.540Z,4.29
2019-02-27T01:54:49.586Z,4.4
2019-02-27T01:55:43.777Z,4.42
2019-02-27T01:56:42.825Z,4.49
2019-02-27T01:57:42.584Z,4.51
2019-02-27T01:58:44.480Z,4.56
2019-02-27T01:59:44.323Z,4.57
2019-02-27T02:00:42.757Z,4.56
2019-02-27T02:01:42.863Z,4.6
2019-02-27T02:02:42.511Z,4.62
2019-02-27T02:03:42.462Z,4.63
2019-02-27T02:04:42.562Z,4.63
2019-02-27T02:05:44.368Z,4.62
2019-02-27T02:06:42.900Z,4.62
2019-02-27T02:07:42.608Z,4.6
2019-02-27T02:08:43.320Z,4.62
2019-02-27T02:09:42.556Z,4.63
2019-02-27T02:10:42.532Z,4.6
2019-02-27T02:11:42.498Z,4.57
2019-02-27T02:12:42.655Z,4.59
2019-02-27T02:13:42.564Z,4.62
2019-02-27T02:14:42.847Z,4.6
2019-02-27T02:15:43.375Z,4.65
2019-02-27T02:16:43.162Z,4.65
2019-02-27T02:17:43.597Z,4.66
2019-02-27T02:18:48.885Z,4.65
2019-02-27T02:19:42.433Z,4.66
2019-02-27T02:20:42.679Z,4.62
2019-02-27T02:21:42.797Z,4.51
2019-02-27T02:22:42.810Z,4.48
2019-02-27T02:23:48.537Z,4.45
2019-02-27T02:24:42.502Z,4.48
2019-02-27T02:25:42.717Z,4.48
2019-02-27T02:26:42.813Z,4.45
2019-02-27T02:27:42.638Z,4.45
2019-02-27T02:28:42.410Z,4.43
2019-02-27T02:29:42.471Z,4.45
2019-02-27T02:30:44.281Z,4.4
2019-02-27T02:31:42.727Z,4.38
2019-02-27T02:32:42.447Z,4.3
2019-02-27T02:33:42.660Z,4.28
2019-02-27T02:34:42.508Z,4.22
2019-02-27T02:35:42.388Z,4.07
2019-02-27T02:36:42.501Z,4
2019-02-27T02:37:42.703Z,3.96
2019-02-27T02:38:43.400Z,3.94
2019-02-27T02:39:42.377Z,3.93
2019-02-27T02:40:42.486Z,3.84
2019-02-27T02:41:48.411Z,3.82
2019-02-27T02:42:42.723Z,3.82
2019-02-27T02:43:42.441Z,3.86
2019-02-27T02:44:44.429Z,3.84
2019-02-27T02:45:42.675Z,3.89
2019-02-27T02:46:46.495Z,3.91
2019-02-27T02:47:42.982Z,3.9
2019-02-27T02:48:42.974Z,3.93
2019-02-27T02:49:44.088Z,3.84
2019-02-27T02:50:42.884Z,3.84
2019-02-27T02:51:42.374Z,3.82
2019-02-27T02:52:42.374Z,3.65
2019-02-27T02:53:42.479Z,3.51
2019-02-27T02:54:42.346Z,3.45
2019-02-27T02:55:49.424Z,3.55
2019-02-27T02:56:42.577Z,3.55
2019-02-27T02:57:42.383Z,3.58
2019-02-27T02:58:49.009Z,3.58
2019-02-27T02:59:42.638Z,3.59
2019-02-27T03:00:43.150Z,3.65
2019-02-27T03:01:50.266Z,3.67
2019-02-27T03:02:44.235Z,3.67
2019-02-27T03:03:42.686Z,3.67
2019-02-27T03:04:49.441Z,3.7
2019-02-27T03:05:42.370Z,3.7
2019-02-27T03:06:42.463Z,3.72
2019-02-27T03:07:45.795Z,3.73
2019-02-27T03:08:42.704Z,3.76
2019-02-27T03:09:42.607Z,3.74
2019-02-27T03:10:43.924Z,3.76
2019-02-27T03:11:42.450Z,3.8
2019-02-27T03:12:42.352Z,3.82
2019-02-27T03:13:42.887Z,3.83
2019-02-27T03:14:42.350Z,3.84
2019-02-27T03:15:44.219Z,3.86
2019-02-27T03:16:42.581Z,3.86
2019-02-27T03:17:42.466Z,3.83
2019-02-27T03:18:42.478Z,3.84
2019-02-27T03:19:42.977Z,3.8
2019-02-27T03:20:42.410Z,3.82
2019-02-27T03:21:42.703Z,3.83
2019-02-27T03:22:42.427Z,3.8
2019-02-27T03:23:42.898Z,3.8
2019-02-27T03:24:42.372Z,3.8
2019-02-27T03:25:42.515Z,3.82
2019-02-27T03:26:42.305Z,3.83
2019-02-27T03:27:42.346Z,3.86
2019-02-27T03:28:42.530Z,3.86
2019-02-27T03:29:43.199Z,3.82
2019-02-27T03:30:42.374Z,3.82
2019-02-27T03:31:42.565Z,3.8
2019-02-27T03:32:44.120Z,3.82
2019-02-27T03:33:42.149Z,3.8
2019-02-27T03:34:51.433Z,3.8
2019-02-27T03:35:42.597Z,3.82
2019-02-27T03:36:42.571Z,3.86
2019-02-27T03:37:49.532Z,3.86
2019-02-27T03:38:42.391Z,3.84
2019-02-27T03:39:42.345Z,3.86
2019-02-27T03:40:48.920Z,3.87
2019-02-27T03:41:42.312Z,3.87
2019-02-27T03:42:42.393Z,3.82
2019-02-27T03:43:46.904Z,3.8
2019-02-27T03:44:44.176Z,3.79
2019-02-27T03:45:42.568Z,3.79
2019-02-27T03:46:42.847Z,3.77
2019-02-27T03:47:42.401Z,3.76
2019-02-27T03:48:42.117Z,3.74
2019-02-27T03:49:42.819Z,3.74
2019-02-27T03:50:50.922Z,3.77
2019-02-27T03:51:43.067Z,3.74
2019-02-27T03:52:42.459Z,3.7
2019-02-27T03:53:47.252Z,3.7
2019-02-27T03:54:42.364Z,3.72
2019-02-27T03:55:42.614Z,3.7
2019-02-27T03:56:44.989Z,3.67
2019-02-27T03:57:42.293Z,3.66
2019-02-27T03:58:42.372Z,3.67
2019-02-27T03:59:44.028Z,3.66
2019-02-27T04:00:42.459Z,3.65
2019-02-27T04:01:42.408Z,3.66
2019-02-27T04:02:43.031Z,3.62
2019-02-27T04:03:42.320Z,3.61
2019-02-27T04:04:42.367Z,3.62
2019-02-27T04:05:46.446Z,3.63
2019-02-27T04:06:42.301Z,3.61
2019-02-27T04:07:44.200Z,3.61
2019-02-27T04:08:45.292Z,3.61
2019-02-27T04:09:42.372Z,3.61
2019-02-27T04:10:42.438Z,3.61
2019-02-27T04:11:42.976Z,3.61
2019-02-27T04:12:42.916Z,3.63
2019-02-27T04:13:42.379Z,3.65
2019-02-27T04:14:42.427Z,3.65
2019-02-27T04:15:42.357Z,3.61
2019-02-27T04:16:42.281Z,3.59
2019-02-27T04:17:42.384Z,3.59
2019-02-27T04:18:42.350Z,3.58
2019-02-27T04:19:42.774Z,3.56
2019-02-27T04:20:42.453Z,3.51
2019-02-27T04:21:42.432Z,3.51
2019-02-27T04:22:42.549Z,3.48
2019-02-27T04:23:49.368Z,3.49
2019-02-27T04:24:42.269Z,3.49
2019-02-27T04:25:42.239Z,3.46
2019-02-27T04:26:43.214Z,3.49
2019-02-27T04:27:42.441Z,3.48
2019-02-27T04:28:42.244Z,3.46
2019-02-27T04:29:42.710Z,3.46
2019-02-27T04:30:42.725Z,3.44
2019-02-27T04:31:42.327Z,3.45
2019-02-27T04:32:49.035Z,3.44
2019-02-27T04:33:42.360Z,3.44
2019-02-27T04:34:43.242Z,3.42
2019-02-27T04:35:42.277Z,3.42
2019-02-27T04:36:47.926Z,3.45
2019-02-27T04:37:42.447Z,3.44
2019-02-27T04:38:42.349Z,3.42
2019-02-27T04:39:42.240Z,3.41
2019-02-27T04:40:44.845Z,3.37
2019-02-27T04:41:42.360Z,3.41
2019-02-27T04:42:42.276Z,3.41
2019-02-27T04:43:44.120Z,3.39
2019-02-27T04:44:44.076Z,3.38
2019-02-27T04:45:47.579Z,3.35
2019-02-27T04:46:42.353Z,3.34
2019-02-27T04:47:42.365Z,3.35
2019-02-27T04:48:42.295Z,3.35
2019-02-27T04:49:42.443Z,3.35
2019-02-27T04:50:44.936Z,3.35
2019-02-27T04:51:43.370Z,3.38
2019-02-27T04:52:42.768Z,3.41
2019-02-27T04:53:42.673Z,3.38
2019-02-27T04:54:42.312Z,3.34
2019-02-27T04:55:42.166Z,3.21
2019-02-27T04:56:42.215Z,3.25
2019-02-27T04:57:42.252Z,3.25
2019-02-27T04:58:43.797Z,3.21
2019-02-27T04:59:42.309Z,3.24
2019-02-27T05:00:42.441Z,3.24
2019-02-27T05:01:43.133Z,3.25
2019-02-27T05:02:42.212Z,3.18
2019-02-27T05:03:42.225Z,3.1
2019-02-27T05:04:42.287Z,3.06
2019-02-27T05:05:42.721Z,3.01
2019-02-27T05:06:47.861Z,2.94
2019-02-27T05:07:42.258Z,2.97
2019-02-27T05:08:42.463Z,3.01
2019-02-27T05:09:42.463Z,2.99
2019-02-27T05:10:42.474Z,2.87
2019-02-27T05:11:48.558Z,2.9
2019-02-27T05:12:42.265Z,2.9
2019-02-27T05:13:43.180Z,2.92
2019-02-27T05:14:43.171Z,2.92
2019-02-27T05:15:42.236Z,2.94
2019-02-27T05:16:44.860Z,2.94
2019-02-27T05:17:42.455Z,2.96
2019-02-27T05:18:42.237Z,2.94
2019-02-27T05:19:42.212Z,2.96
2019-02-27T05:20:45.967Z,2.96
2019-02-27T05:21:42.327Z,3.01
2019-02-27T05:22:41.987Z,3.07
2019-02-27T05:23:42.364Z,3.1
2019-02-27T05:24:42.273Z,3.1
2019-02-27T05:25:44.012Z,3.11
2019-02-27T05:26:42.326Z,3.12
2019-02-27T05:27:42.395Z,3.11
2019-02-27T05:28:43.151Z,3.11
2019-02-27T05:29:42.396Z,3.11
2019-02-27T05:30:46.019Z,3.14
2019-02-27T05:31:42.159Z,3.17
2019-02-27T05:32:42.417Z,3.15
2019-02-27T05:33:43.080Z,3.11
2019-02-27T05:34:50.462Z,3.1
2019-02-27T05:35:42.757Z,3.14
2019-02-27T05:36:42.752Z,3.1
2019-02-27T05:37:42.547Z,3.06
2019-02-27T05:38:44.264Z,3.03
2019-02-27T05:39:42.763Z,3
2019-02-27T05:40:42.584Z,3.03
2019-02-27T05:41:42.530Z,2.99
2019-02-27T05:42:42.999Z,3.01
2019-02-27T05:43:48.769Z,2.99
2019-02-27T05:44:42.091Z,3
2019-02-27T05:45:43.561Z,2.97
2019-02-27T05:46:42.184Z,2.96
2019-02-27T05:47:46.079Z,2.99
2019-02-27T05:48:42.523Z,2.96
2019-02-27T05:49:42.738Z,2.96
2019-02-27T05:50:42.105Z,2.94
2019-02-27T05:51:43.035Z,2.99
2019-02-27T05:52:42.203Z,2.99
2019-02-27T05:53:42.200Z,2.93
2019-02-27T05:54:59.058Z,2.79
2019-02-27T05:55:42.288Z,2.65
2019-02-27T05:56:42.469Z,2.64
2019-02-27T05:57:42.373Z,2.62
2019-02-27T05:58:43.616Z,2.58
2019-02-27T05:59:42.593Z,2.61
2019-02-27T06:00:42.226Z,2.61
2019-02-27T06:01:42.585Z,2.61
2019-02-27T06:02:45.754Z,2.58
2019-02-27T06:03:42.209Z,2.54
2019-02-27T06:04:42.417Z,2.48
2019-02-27T06:05:49.962Z,2.49
2019-02-27T06:06:45.950Z,2.48
2019-02-27T06:07:43.000Z,2.52
2019-02-27T06:08:42.126Z,2.51
2019-02-27T06:09:44.748Z,2.55
2019-02-27T06:10:42.566Z,2.56
2019-02-27T06:11:42.129Z,2.56
2019-02-27T06:12:42.259Z,2.58
2019-02-27T06:13:42.378Z,2.55
2019-02-27T06:14:42.392Z,2.55
2019-02-27T06:15:42.433Z,2.54
2019-02-27T06:16:42.313Z,2.52
2019-02-27T06:17:49.612Z,2.51
2019-02-27T06:18:42.344Z,2.51
2019-02-27T06:19:43.673Z,2.51
2019-02-27T06:20:43.064Z,2.49
2019-02-27T06:21:42.971Z,2.51
2019-02-27T06:22:42.538Z,2.48
2019-02-27T06:23:42.233Z,2.47
2019-02-27T06:24:46.547Z,2.45
2019-02-27T06:25:42.575Z,2.44
2019-02-27T06:26:42.198Z,2.47
2019-02-27T06:27:42.270Z,2.45
2019-02-27T06:28:42.081Z,2.48
2019-02-27T06:29:43.035Z,2.47
2019-02-27T06:30:42.041Z,2.43
2019-02-27T06:31:42.069Z,2.4
2019-02-27T06:32:42.933Z,2.33
2019-02-27T06:33:46.027Z,2.11
2019-02-27T06:34:42.268Z,2.07
2019-02-27T06:35:42.120Z,2.06
2019-02-27T06:36:43.148Z,2.04
2019-02-27T06:37:42.534Z,2.04
2019-02-27T06:38:42.157Z,2.07
2019-02-27T06:39:43.300Z,2.14
2019-02-27T06:40:43.045Z,2.17
2019-02-27T06:41:42.478Z,2.18
2019-02-27T06:42:42.986Z,2.22
2019-02-27T06:43:42.372Z,2.24
2019-02-27T06:44:42.482Z,2.28
2019-02-27T06:45:46.721Z,2.28
2019-02-27T06:46:42.051Z,2.33
2019-02-27T06:47:42.276Z,2.33
2019-02-27T06:48:44.233Z,2.38
2019-02-27T06:49:42.616Z,2.38
2019-02-27T06:50:42.055Z,2.41
2019-02-27T06:51:42.087Z,2.44
2019-02-27T06:52:43.178Z,2.44
2019-02-27T06:53:42.140Z,2.44
2019-02-27T06:54:43.054Z,2.45
2019-02-27T06:55:42.196Z,2.51
2019-02-27T06:56:42.039Z,2.51
2019-02-27T06:57:42.119Z,2.47
2019-02-27T06:58:42.026Z,2.51
2019-02-27T06:59:42.256Z,2.49
2019-02-27T07:00:42.293Z,2.51
2019-02-27T07:01:41.986Z,2.55
2019-02-27T07:02:42.165Z,2.58
2019-02-27T07:03:42.366Z,2.61
2019-02-27T07:04:42.817Z,2.64
2019-02-27T07:05:48.834Z,2.65
2019-02-27T07:06:42.330Z,2.69
2019-02-27T07:07:42.324Z,2.73
2019-02-27T07:08:42.022Z,2.77
2019-02-27T07:09:46.580Z,2.77
2019-02-27T07:10:42.369Z,2.79
2019-02-27T07:11:48.904Z,2.8
2019-02-27T07:12:42.166Z,2.8
2019-02-27T07:13:41.957Z,2.83
2019-02-27T07:14:41.832Z,2.87
2019-02-27T07:15:48.909Z,2.9
2019-02-27T07:16:42.698Z,2.93
2019-02-27T07:17:42.193Z,2.97
2019-02-27T07:18:42.570Z,3.01
2019-02-27T07:19:42.405Z,3.01
2019-02-27T07:20:42.532Z,3.04
2019-02-27T07:21:42.069Z,3.06
2019-02-27T07:22:46.876Z,3.1
2019-02-27T07:23:43.833Z,3.08
2019-02-27T07:24:42.094Z,3.11
2019-02-27T07:25:43.824Z,3.17
2019-02-27T07:26:41.789Z,3.2
2019-02-27T07:27:41.798Z,3.2
2019-02-27T07:28:44.194Z,3.2
2019-02-27T07:29:43.158Z,3.24
2019-02-27T07:30:43.344Z,3.31
2019-02-27T07:31:42.643Z,3.32
2019-02-27T07:32:43.811Z,3.37
2019-02-27T07:33:41.822Z,3.39
2019-02-27T07:34:41.779Z,3.39
2019-02-27T07:35:42.067Z,3.46
2019-02-27T07:36:42.161Z,3.51
2019-02-27T07:37:48.370Z,3.54
2019-02-27T07:38:43.828Z,3.58
2019-02-27T07:39:42.306Z,3.62
2019-02-27T07:40:43.649Z,3.63
2019-02-27T07:41:43.787Z,3.67
2019-02-27T07:42:41.784Z,3.72
2019-02-27T07:43:41.776Z,3.74
2019-02-27T07:44:42.505Z,3.76
2019-02-27T07:45:46.301Z,3.8
2019-02-27T07:46:41.749Z,3.86
2019-02-27T07:47:41.928Z,3.89
2019-02-27T07:48:41.754Z,3.91
2019-02-27T07:49:42.706Z,3.93
2019-02-27T07:50:42.242Z,3.94
2019-02-27T07:51:42.311Z,4
2019-02-27T07:52:42.214Z,4.01
2019-02-27T07:53:42.445Z,4.08
2019-02-27T07:54:42.329Z,4.12
2019-02-27T07:55:42.056Z,4.15
2019-02-27T07:56:42.085Z,4.22
2019-02-27T07:57:42.563Z,4.26
2019-02-27T07:58:42.559Z,4.33
2019-02-27T07:59:42.362Z,4.33
2019-02-27T08:00:43.045Z,4.38
2019-02-27T08:01:44.361Z,4.42
2019-02-27T08:02:42.670Z,4.56
2019-02-27T08:03:46.114Z,4.65
2019-02-27T08:04:43.764Z,4.66
2019-02-27T08:05:41.956Z,4.65
2019-02-27T08:06:42.313Z,4.69
2019-02-27T08:07:42.009Z,4.72
2019-02-27T08:08:42.019Z,4.77
2019-02-27T08:09:42.433Z,4.8
2019-02-27T08:10:42.096Z,4.87
2019-02-27T08:11:48.000Z,4.87
2019-02-27T08:12:42.345Z,4.93
2019-02-27T08:13:42.362Z,4.95
2019-02-27T08:14:41.990Z,5
2019-02-27T08:15:42.009Z,5
2019-02-27T08:16:42.178Z,5.01
2019-02-27T08:17:42.755Z,5.07
2019-02-27T08:18:42.087Z,5.18
2019-02-27T08:19:46.232Z,5.22
2019-02-27T08:20:42.006Z,5.26
2019-02-27T08:21:42.035Z,5.26
2019-02-27T08:22:42.035Z,5.32
2019-02-27T08:23:42.098Z,5.36
2019-02-27T08:24:42.428Z,5.4
2019-02-27T08:25:42.729Z,5.42
2019-02-27T08:26:42.280Z,5.46
2019-02-27T08:27:43.987Z,5.5
2019-02-27T08:28:42.255Z,5.51
2019-02-27T08:29:42.027Z,5.57
2019-02-27T08:30:41.987Z,5.59
2019-02-27T08:31:42.025Z,5.59
2019-02-27T08:32:42.090Z,5.64
2019-02-27T08:33:42.029Z,5.66
2019-02-27T08:34:42.309Z,5.69
2019-02-27T08:35:42.791Z,5.7
2019-02-27T08:36:43.573Z,5.85
2019-02-27T08:37:41.985Z,5.95
2019-02-27T08:38:42.011Z,6.06
2019-02-27T08:39:42.531Z,6.04
2019-02-27T08:40:41.988Z,6.02
2019-02-27T08:41:42.233Z,6.15
2019-02-27T08:42:41.858Z,6.15
2019-02-27T08:43:42.079Z,6.2
2019-02-27T08:44:46.706Z,6.22
2019-02-27T08:45:42.674Z,6.25
2019-02-27T08:46:41.871Z,6.33
2019-02-27T08:47:44.673Z,6.36
2019-02-27T08:48:42.083Z,6.37
2019-02-27T08:49:42.087Z,6.44
2019-02-27T08:50:41.665Z,6.53
2019-02-27T08:51:42.762Z,6.61
2019-02-27T08:52:41.700Z,6.65
2019-02-27T08:53:41.833Z,6.68
2019-02-27T08:54:42.227Z,6.73
2019-02-27T08:55:42.325Z,6.84
2019-02-27T08:56:47.993Z,6.84
2019-02-27T08:57:42.462Z,6.9
2019-02-27T08:58:42.831Z,6.95
2019-02-27T08:59:42.026Z,6.95
2019-02-27T09:00:41.913Z,7.06
2019-02-27T09:01:42.476Z,7.03
2019-02-27T09:02:41.971Z,7.11
2019-02-27T09:03:42.101Z,7.09
2019-02-27T09:04:46.214Z,7.22
2019-02-27T09:05:42.602Z,7.24
2019-02-27T09:06:42.206Z,7.34
2019-02-27T09:07:43.253Z,7.33
2019-02-27T09:08:44.439Z,7.4
2019-02-27T09:09:42.039Z,7.41
2019-02-27T09:10:41.931Z,7.51
2019-02-27T09:11:42.434Z,7.57
2019-02-27T09:12:41.919Z,7.58
2019-02-27T09:13:42.041Z,7.62
2019-02-27T09:14:41.854Z,7.67
2019-02-27T09:15:43.678Z,7.74
2019-02-27T09:16:42.670Z,7.75
2019-02-27T09:17:42.006Z,7.8
2019-02-27T09:18:44.335Z,7.88
2019-02-27T09:19:46.554Z,7.96
2019-02-27T09:20:42.503Z,8.06
2019-02-27T09:21:41.801Z,8.06
2019-02-27T09:22:41.952Z,8.14
2019-02-27T09:23:42.668Z,8.14
2019-02-27T09:24:42.757Z,8.27
2019-02-27T09:25:42.489Z,8.33
2019-02-27T09:26:42.625Z,8.3
2019-02-27T09:27:42.338Z,8.4
2019-02-27T09:28:45.286Z,8.51
2019-02-27T09:29:42.145Z,8.51
2019-02-27T09:30:41.773Z,8.55
2019-02-27T09:31:51.272Z,8.57
2019-02-27T09:32:46.738Z,8.59
2019-02-27T09:33:41.835Z,8.62
2019-02-27T09:34:42.623Z,8.61
2019-02-27T09:35:42.082Z,8.74
2019-02-27T09:36:43.937Z,8.78
2019-02-27T09:37:42.514Z,8.85
2019-02-27T09:38:41.918Z,8.96
2019-02-27T09:39:42.658Z,9.14
2019-02-27T09:40:42.038Z,9.1
2019-02-27T09:41:47.179Z,9.16
2019-02-27T09:42:41.623Z,9.16
2019-02-27T09:43:41.597Z,9.16
2019-02-27T09:44:41.606Z,9.31
2019-02-27T09:45:47.217Z,9.45
2019-02-27T09:46:41.585Z,9.4
2019-02-27T09:47:41.619Z,9.4
2019-02-27T09:48:42.074Z,9.42
2019-02-27T09:49:41.974Z,9.41
2019-02-27T09:50:49.216Z,9.48
2019-02-27T09:51:41.737Z,9.62
2019-02-27T09:52:41.808Z,9.73
2019-02-27T09:53:42.108Z,9.65
2019-02-27T09:54:47.669Z,9.72
2019-02-27T09:55:41.738Z,9.81
2019-02-27T09:56:41.789Z,9.78
2019-02-27T09:57:42.145Z,9.78
2019-02-27T09:58:46.369Z,9.85
2019-02-27T09:59:41.780Z,9.83
2019-02-27T10:00:41.995Z,9.86
2019-02-27T10:01:41.568Z,9.94
2019-02-27T10:02:47.062Z,10.03
2019-02-27T10:03:42.679Z,10.09
2019-02-27T10:04:41.742Z,10.09
2019-02-27T10:05:43.585Z,10.1
2019-02-27T10:06:43.662Z,10.14
2019-02-27T10:07:41.714Z,10.16
2019-02-27T10:08:41.882Z,10.19
2019-02-27T10:09:41.939Z,10.21
2019-02-27T10:10:46.169Z,10.35
2019-02-27T10:11:41.728Z,10.42
2019-02-27T10:12:42.490Z,10.49
2019-02-27T10:13:42.040Z,10.53
2019-02-27T10:14:42.686Z,10.56
2019-02-27T10:15:42.053Z,10.61
2019-02-27T10:16:41.734Z,10.59
2019-02-27T10:17:44.344Z,10.64
2019-02-27T10:18:42.077Z,10.62
2019-02-27T10:19:41.972Z,10.66
2019-02-27T10:20:43.591Z,10.71
2019-02-27T10:21:46.999Z,10.71
2019-02-27T10:22:41.998Z,10.76
2019-02-27T10:23:41.746Z,10.86
2019-02-27T10:24:43.561Z,10.9
2019-02-27T10:25:44.261Z,10.87
2019-02-27T10:26:42.132Z,10.92
2019-02-27T10:27:42.043Z,10.9
2019-02-27T10:28:44.175Z,10.94
2019-02-27T10:29:41.787Z,11
2019-02-27T10:30:41.732Z,11.06
2019-02-27T10:31:42.147Z,11.01
2019-02-27T10:32:42.155Z,11.11
2019-02-27T10:33:43.860Z,11.15
2019-02-27T10:34:42.074Z,11.2
2019-02-27T10:35:42.181Z,11.27
2019-02-27T10:36:42.585Z,11.32
2019-02-27T10:37:42.099Z,11.32
2019-02-27T10:38:45.647Z,11.39
2019-02-27T10:39:42.203Z,11.49
2019-02-27T10:40:42.111Z,11.49
2019-02-27T10:41:42.013Z,11.51
2019-02-27T10:42:42.025Z,11.52
2019-02-27T10:43:41.929Z,11.61
2019-02-27T10:44:43.527Z,11.59
2019-02-27T10:45:42.446Z,11.73
2019-02-27T10:46:41.691Z,11.77
2019-02-27T10:47:42.882Z,11.8
2019-02-27T10:48:43.541Z,11.87
2019-02-27T10:49:41.703Z,11.92
2019-02-27T10:50:41.752Z,11.96
2019-02-27T10:51:44.471Z,12.03
2019-02-27T10:52:41.742Z,12.05
2019-02-27T10:53:42.542Z,12.05
2019-02-27T10:54:41.779Z,12.16
2019-02-27T10:55:42.261Z,12.18
2019-02-27T10:56:42.526Z,12.2
2019-02-27T10:57:41.707Z,12.21
2019-02-27T10:58:41.668Z,12.27
2019-02-27T10:59:41.783Z,12.31
2019-02-27T11:00:42.673Z,12.39
2019-02-27T11:01:41.749Z,12.55
2019-02-27T11:02:41.756Z,12.62
2019-02-27T11:03:43.496Z,12.7
2019-02-27T11:04:43.033Z,12.67
2019-02-27T11:05:41.975Z,12.73
2019-02-27T11:06:41.756Z,12.76
2019-02-27T11:07:41.750Z,12.77
2019-02-27T11:08:41.637Z,12.83
2019-02-27T11:09:43.029Z,12.88
2019-02-27T11:10:42.218Z,12.83
2019-02-27T11:11:42.320Z,12.91
2019-02-27T11:12:42.025Z,12.99
2019-02-27T11:13:41.959Z,13
2019-02-27T11:14:41.720Z,13.03
2019-02-27T11:15:45.585Z,13.06
2019-02-27T11:16:42.050Z,13.17
2019-02-27T11:17:41.686Z,13.24
2019-02-27T11:18:42.941Z,13.34
2019-02-27T11:19:43.099Z,13.38
2019-02-27T11:20:42.177Z,13.38
2019-02-27T11:21:41.686Z,13.42
2019-02-27T11:22:41.988Z,13.45
2019-02-27T11:23:41.952Z,13.56
2019-02-27T11:24:42.103Z,13.66
2019-02-27T11:25:41.914Z,13.73
2019-02-27T11:26:41.751Z,13.79
2019-02-27T11:27:41.667Z,13.82
2019-02-27T11:28:48.354Z,13.84
2019-02-27T11:29:41.671Z,13.8
2019-02-27T11:30:42.653Z,13.84
2019-02-27T11:31:46.277Z,13.86
2019-02-27T11:32:42.543Z,13.91
2019-02-27T11:33:41.767Z,13.94
2019-02-27T11:34:49.189Z,14.01
2019-02-27T11:35:41.770Z,14.11
2019-02-27T11:36:41.974Z,14.12
2019-02-27T11:37:47.433Z,14.17
2019-02-27T11:38:41.700Z,14.25
2019-02-27T11:39:41.584Z,14.28
2019-02-27T11:40:43.046Z,14.33
2019-02-27T11:41:41.933Z,14.31
2019-02-27T11:42:42.032Z,14.33
2019-02-27T11:43:42.046Z,14.36
2019-02-27T11:44:42.353Z,14.51
2019-02-27T11:45:42.167Z,14.52
2019-02-27T11:46:41.770Z,14.49
2019-02-27T11:47:48.251Z,14.53
2019-02-27T11:48:41.958Z,14.55
2019-02-27T11:49:43.478Z,14.6
2019-02-27T11:50:41.644Z,14.67
2019-02-27T11:51:41.975Z,14.72
2019-02-27T11:52:49.393Z,14.84
2019-02-27T11:53:41.859Z,14.79
2019-02-27T11:54:43.984Z,14.86
2019-02-27T11:55:42.408Z,14.9
2019-02-27T11:56:41.729Z,15
2019-02-27T11:57:43.400Z,15.07
2019-02-27T11:58:41.771Z,15.21
2019-02-27T11:59:47.572Z,15.21
2019-02-27T12:00:41.941Z,15.12
2019-02-27T12:01:41.612Z,15.05
2019-02-27T12:02:41.725Z,15.01
2019-02-27T12:03:46.604Z,15.05
2019-02-27T12:04:41.841Z,15.15
2019-02-27T12:05:41.643Z,15.12
2019-02-27T12:06:42.337Z,15.21
2019-02-27T12:07:43.418Z,15.26
2019-02-27T12:08:41.687Z,15.23
2019-02-27T12:09:43.024Z,15.29
2019-02-27T12:10:41.643Z,15.28
2019-02-27T12:11:49.507Z,15.23
2019-02-27T12:12:42.377Z,15.29
2019-02-27T12:13:41.677Z,15.42
2019-02-27T12:14:42.034Z,15.45
2019-02-27T12:15:44.377Z,15.57
2019-02-27T12:16:42.682Z,15.64
2019-02-27T12:17:41.563Z,15.67
2019-02-27T12:18:41.856Z,15.73
2019-02-27T12:19:45.474Z,15.73
2019-02-27T12:20:41.782Z,15.76
2019-02-27T12:21:41.608Z,15.8
2019-02-27T12:22:42.085Z,15.88
2019-02-27T12:23:44.945Z,15.92
2019-02-27T12:24:41.644Z,15.97
2019-02-27T12:25:41.800Z,16.05
2019-02-27T12:26:41.629Z,16.11
2019-02-27T12:27:50.082Z,16.15
2019-02-27T12:28:41.652Z,16.16
2019-02-27T12:29:41.932Z,16.31
2019-02-27T12:30:41.658Z,16.46
2019-02-27T12:31:42.243Z,16.56
2019-02-27T12:32:42.151Z,16.62
2019-02-27T12:33:41.602Z,16.64
2019-02-27T12:34:41.739Z,16.62
2019-02-27T12:35:45.113Z,16.63
2019-02-27T12:36:41.561Z,16.6
2019-02-27T12:37:41.650Z,16.46
2019-02-27T12:38:42.667Z,16.46
2019-02-27T12:39:43.687Z,16.37
2019-02-27T12:40:42.024Z,16.45
2019-02-27T12:41:41.531Z,16.54
2019-02-27T12:42:43.299Z,16.66
2019-02-27T12:43:41.706Z,16.71
2019-02-27T12:44:41.588Z,16.78
2019-02-27T12:45:41.609Z,16.77
2019-02-27T12:46:42.144Z,16.91
2019-02-27T12:47:41.770Z,16.86
2019-02-27T12:48:47.206Z,16.91
2019-02-27T12:49:41.800Z,16.84
2019-02-27T12:50:41.334Z,16.83
2019-02-27T12:51:41.631Z,16.92
2019-02-27T12:52:48.265Z,17.01
2019-02-27T12:53:42.655Z,17.12
2019-02-27T12:54:42.088Z,17.22
2019-02-27T12:55:42.340Z,17.29
2019-02-27T12:56:44.629Z,17.36
2019-02-27T12:57:41.522Z,17.44
2019-02-27T12:58:41.582Z,17.53
2019-02-27T12:59:41.724Z,17.57
2019-02-27T13:00:43.218Z,17.71
2019-02-27T13:01:43.087Z,17.81
2019-02-27T13:02:42.037Z,17.69
2019-02-27T13:03:43.133Z,17.64
2019-02-27T13:04:41.482Z,17.52
2019-02-27T13:05:41.758Z,17.5
2019-02-27T13:06:41.776Z,17.39
2019-02-27T13:07:45.593Z,17.4
2019-02-27T13:08:41.615Z,17.53
2019-02-27T13:09:41.779Z,17.56
2019-02-27T13:10:41.569Z,17.6
2019-02-27T13:11:45.130Z,17.67
2019-02-27T13:12:41.569Z,17.73
2019-02-27T13:13:41.595Z,17.73
2019-02-27T13:14:41.667Z,17.82
2019-02-27T13:15:41.931Z,17.91